createdAt,value
2019-04-30T00:00:18.421Z,90.70
2019-04-30T00:03:00.407Z,90.60
2019-04-30T00:05:35.173Z,90.60
2019-04-30T00:08:08.221Z,90.70
2019-04-30T00:10:41.529Z,90.70
2019-04-30T00:13:17.793Z,90.20
2019-04-30T00:15:52.693Z,90.20
2019-04-30T00:18:25.502Z,90.20
2019-04-30T00:20:58.514Z,90.20
2019-04-30T00:23:31.315Z,90.60
2019-04-30T00:26:06.406Z,90.60
2019-04-30T00:28:46.341Z,90.70
2019-04-30T00:31:17.285Z,90.80
2019-04-30T00:33:52.776Z,90.90
2019-04-30T00:36:29.380Z,90.50
2019-04-30T00:38:59.829Z,90.90
2019-04-30T00:41:32.787Z,90.90
2019-04-30T00:44:05.942Z,90.90
2019-04-30T00:46:38.825Z,90.40
2019-04-30T00:49:18.538Z,90.70
2019-04-30T00:51:54.718Z,91.80
2019-04-30T00:54:30.943Z,90.90
2019-04-30T00:57:07.632Z,91.50
2019-04-30T00:59:47.860Z,91.50
2019-04-30T01:02:31.794Z,91.10
2019-04-30T01:05:08.620Z,91.40
2019-04-30T01:07:39.563Z,91.70
2019-04-30T01:10:19.637Z,91.60
2019-04-30T01:12:59.769Z,93.30
2019-04-30T01:15:30.192Z,93.60
2019-04-30T01:18:04.038Z,93.90
2019-04-30T01:20:41.666Z,93.00
2019-04-30T01:23:19.615Z,94.00
2019-04-30T01:25:56.474Z,94.30
2019-04-30T01:28:31.453Z,93.40
2019-04-30T01:31:08.913Z,94.30
2019-04-30T01:33:44.001Z,94.80
2019-04-30T01:36:17.004Z,94.80
2019-04-30T01:38:53.382Z,95.60
2019-04-30T01:41:28.307Z,95.00
2019-04-30T01:44:12.071Z,94.90
2019-04-30T01:46:48.253Z,95.90
2019-04-30T01:49:42.914Z,95.40
2019-04-30T01:52:49.417Z,95.50
2019-04-30T01:55:55.448Z,95.00
2019-04-30T01:58:49.146Z,95.80
2019-04-30T02:01:28.636Z,95.40
2019-04-30T02:04:08.509Z,95.60
2019-04-30T02:06:42.459Z,95.60
2019-04-30T02:09:20.699Z,97.20
2019-04-30T02:11:56.167Z,95.60
2019-04-30T02:14:31.027Z,95.30
2019-04-30T02:17:06.256Z,95.80
2019-04-30T02:19:39.636Z,96.30
2019-04-30T02:22:15.277Z,96.70
2019-04-30T02:24:51.372Z,94.20
2019-04-30T02:27:25.900Z,93.70
2019-04-30T02:30:02.685Z,94.30
2019-04-30T02:32:39.379Z,94.80
2019-04-30T02:35:28.776Z,95.60
2019-04-30T02:38:14.822Z,95.00
2019-04-30T02:40:50.049Z,95.40
2019-04-30T02:43:26.232Z,95.50
2019-04-30T02:46:03.077Z,96.00
2019-04-30T02:48:40.567Z,96.30
2019-04-30T02:51:20.162Z,95.90
2019-04-30T02:54:22.972Z,96.40
2019-04-30T02:57:23.330Z,95.70
2019-04-30T03:00:13.920Z,95.10
2019-04-30T03:02:46.727Z,95.60
2019-04-30T03:05:20.403Z,96.80
2019-04-30T03:07:55.388Z,95.80
2019-04-30T03:10:30.310Z,93.20
2019-04-30T03:13:03.081Z,94.20
2019-04-30T03:15:35.992Z,95.40
2019-04-30T03:18:19.589Z,95.70
2019-04-30T03:21:09.644Z,96.60
2019-04-30T03:23:41.848Z,96.20
2019-04-30T03:26:14.654Z,95.70
2019-04-30T03:28:49.306Z,96.00
2019-04-30T03:31:22.794Z,97.00
2019-04-30T03:33:56.043Z,96.90
2019-04-30T03:36:32.666Z,96.10
2019-04-30T03:39:03.502Z,96.20
2019-04-30T03:41:36.355Z,96.40
2019-04-30T03:44:20.811Z,96.50
2019-04-30T03:46:43.941Z,96.50
2019-04-30T03:49:16.883Z,96.70
2019-04-30T03:51:50.108Z,97.00
2019-04-30T03:54:23.099Z,97.40
2019-04-30T03:57:00.718Z,98.40
2019-04-30T03:59:33.146Z,97.30
2019-04-30T04:02:30.795Z,97.20
2019-04-30T04:05:29.882Z,97.20
2019-04-30T04:08:29.380Z,97.10
2019-04-30T04:11:21.621Z,96.90
2019-04-30T04:13:54.706Z,96.50
2019-04-30T04:16:29.330Z,96.70
2019-04-30T04:19:03.145Z,98.10
2019-04-30T04:21:36.295Z,98.00
2019-04-30T04:24:10.601Z,98.10
2019-04-30T04:26:44.166Z,97.00
2019-04-30T04:29:19.375Z,97.90
2019-04-30T04:31:51.727Z,98.40
2019-04-30T04:34:24.793Z,98.10
2019-04-30T04:37:00.042Z,97.30
2019-04-30T04:39:32.592Z,97.40
2019-04-30T04:42:05.537Z,98.00
2019-04-30T04:44:39.925Z,98.20
2019-04-30T04:47:16.142Z,98.00
2019-04-30T04:49:53.787Z,98.30
2019-04-30T04:52:25.139Z,97.80
2019-04-30T04:55:00.371Z,98.10
2019-04-30T04:57:32.766Z,98.50
2019-04-30T05:00:07.489Z,98.40
2019-04-30T05:03:09.495Z,98.40
2019-04-30T05:05:42.488Z,98.30
2019-04-30T05:08:15.756Z,97.80
2019-04-30T05:10:49.500Z,98.00
2019-04-30T05:13:22.460Z,98.00
2019-04-30T05:15:55.414Z,98.50
2019-04-30T05:18:29.121Z,98.70
2019-04-30T05:21:02.432Z,98.00
2019-04-30T05:23:35.746Z,98.50
2019-04-30T05:26:10.948Z,98.80
2019-04-30T05:28:43.547Z,98.80
2019-04-30T05:31:18.480Z,99.00
2019-04-30T05:33:51.964Z,98.80
2019-04-30T05:36:25.045Z,97.80
2019-04-30T05:38:58.734Z,97.30
2019-04-30T05:41:31.810Z,96.90
2019-04-30T05:44:05.375Z,96.90
2019-04-30T05:46:39.771Z,96.40
2019-04-30T05:49:13.243Z,96.10
2019-04-30T05:51:53.575Z,95.50
2019-04-30T05:54:21.423Z,95.60
2019-04-30T05:56:54.339Z,95.90
2019-04-30T05:59:28.974Z,95.50
2019-04-30T06:02:03.810Z,95.10
2019-04-30T06:04:38.656Z,95.90
2019-04-30T06:07:11.885Z,95.90
2019-04-30T06:09:53.300Z,96.00
2019-04-30T06:12:49.431Z,96.60
2019-04-30T06:15:48.893Z,96.80
2019-04-30T06:18:22.420Z,97.00
2019-04-30T06:20:55.543Z,97.00
2019-04-30T06:23:29.376Z,96.90
2019-04-30T06:26:09.951Z,96.40
2019-04-30T06:28:39.023Z,95.80
2019-04-30T06:31:13.375Z,95.70
2019-04-30T06:33:48.750Z,95.40
2019-04-30T06:36:22.577Z,94.60
2019-04-30T06:38:58.870Z,95.30
2019-04-30T06:41:31.658Z,95.30
2019-04-30T06:44:04.911Z,94.70
2019-04-30T06:46:39.611Z,95.70
2019-04-30T06:49:14.684Z,95.50
2019-04-30T06:51:51.046Z,95.20
2019-04-30T06:54:28.766Z,95.40
2019-04-30T08:41:30.080Z,75.50
2019-04-30T08:44:03.020Z,78.40
2019-04-30T08:46:35.976Z,82.30
2019-04-30T08:49:09.940Z,82.80
2019-04-30T08:51:43.577Z,78.40
2019-04-30T08:54:16.675Z,82.70
2019-04-30T08:56:50.400Z,83.00
2019-04-30T08:59:23.376Z,83.70
2019-04-30T09:01:56.204Z,86.90
2019-04-30T09:04:31.139Z,90.40
2019-04-30T09:07:04.884Z,91.20
2019-04-30T09:09:38.978Z,92.50
2019-04-30T09:12:11.991Z,94.10
2019-04-30T09:14:45.018Z,93.00
2019-04-30T09:17:19.953Z,93.00
2019-04-30T09:20:04.935Z,95.10
2019-04-30T09:22:39.350Z,92.60
2019-04-30T09:25:12.395Z,92.60
2019-04-30T09:27:45.376Z,93.60
2019-04-30T09:30:38.663Z,91.20
2019-04-30T09:33:11.248Z,91.00
2019-04-30T09:35:43.445Z,90.90
2019-04-30T09:38:15.646Z,91.80
2019-04-30T09:40:47.762Z,93.60
2019-04-30T09:43:20.256Z,93.30
2019-04-30T09:45:52.381Z,92.30
2019-04-30T09:48:24.533Z,91.70
2019-04-30T09:50:57.125Z,92.10
2019-04-30T09:53:30.252Z,92.60
2019-04-30T09:56:02.789Z,92.70
2019-04-30T09:58:35.124Z,91.00
2019-04-30T10:01:09.437Z,91.30
2019-04-30T10:03:42.376Z,92.30
2019-04-30T10:06:15.394Z,90.90
2019-04-30T10:08:50.953Z,91.10
2019-04-30T10:11:40.435Z,91.20
2019-04-30T10:14:12.559Z,90.90
2019-04-30T10:17:06.927Z,91.30
2019-04-30T10:19:39.420Z,90.80
2019-04-30T10:22:11.979Z,91.40
2019-04-30T10:24:44.480Z,91.20
2019-04-30T10:27:19.154Z,91.30
2019-04-30T10:29:51.672Z,92.40
2019-04-30T10:32:24.077Z,92.40
2019-04-30T10:34:56.504Z,92.40
2019-04-30T10:37:32.471Z,94.00
2019-04-30T10:40:05.372Z,94.70
2019-04-30T10:42:39.228Z,94.60
2019-04-30T10:45:13.006Z,93.90
2019-04-30T10:47:45.871Z,86.70
2019-04-30T10:50:18.254Z,83.30
2019-04-30T10:52:50.286Z,83.40
2019-04-30T10:55:22.607Z,84.00
2019-04-30T10:57:55.045Z,82.50
2019-04-30T11:00:41.041Z,86.50
2019-04-30T11:03:19.832Z,81.00
2019-04-30T11:05:48.782Z,78.80
2019-04-30T11:08:21.568Z,79.80
2019-04-30T11:10:53.846Z,74.70
2019-04-30T11:13:26.368Z,72.50
2019-04-30T11:16:02.606Z,67.80
2019-04-30T11:18:32.966Z,69.30
2019-04-30T11:21:05.630Z,71.30
2019-04-30T11:23:39.556Z,63.50
2019-04-30T11:26:12.644Z,57.80
2019-04-30T11:28:45.467Z,56.30
2019-04-30T11:31:37.490Z,58.00
2019-04-30T11:34:09.941Z,54.10
2019-04-30T11:36:42.089Z,54.40
2019-04-30T11:39:21.873Z,55.50
2019-04-30T11:41:53.995Z,51.10
2019-04-30T11:44:30.948Z,52.60
2019-04-30T11:47:33.867Z,52.00
2019-04-30T11:50:12.188Z,53.60
2019-04-30T11:52:45.091Z,52.80
2019-04-30T11:55:19.320Z,52.00
2019-04-30T11:57:52.144Z,53.50
2019-04-30T12:00:32.045Z,51.40
2019-04-30T12:03:04.414Z,50.30
2019-04-30T12:05:38.851Z,49.00
2019-04-30T12:08:21.896Z,48.60
2019-04-30T12:11:15.252Z,47.70
2019-04-30T12:13:47.145Z,50.20
2019-04-30T12:16:19.663Z,48.40
2019-04-30T12:18:52.165Z,47.10
2019-04-30T12:21:24.479Z,48.10
2019-04-30T12:23:56.715Z,45.50
2019-04-30T12:26:29.023Z,45.40
2019-04-30T12:29:01.400Z,46.50
2019-04-30T12:31:33.555Z,46.40
2019-04-30T12:34:06.157Z,47.30
2019-04-30T12:36:38.833Z,42.60
2019-04-30T12:39:11.512Z,43.70
2019-04-30T12:41:43.960Z,44.50
2019-04-30T12:44:16.397Z,43.30
2019-04-30T12:46:48.703Z,44.40
2019-04-30T12:49:20.985Z,44.70
2019-04-30T12:52:11.493Z,45.40
2019-04-30T12:54:57.317Z,42.70
2019-04-30T12:57:39.126Z,42.60
2019-04-30T13:00:13.780Z,43.10
2019-04-30T13:02:46.272Z,42.70
2019-04-30T13:05:19.828Z,41.00
2019-04-30T13:07:53.328Z,41.80
2019-04-30T13:10:27.015Z,41.90
2019-04-30T13:13:00.417Z,43.90
2019-04-30T13:15:33.186Z,43.50
2019-04-30T13:18:05.432Z,41.60
2019-04-30T13:20:39.160Z,41.50
2019-04-30T13:23:11.727Z,41.90
2019-04-30T13:25:51.159Z,42.10
2019-04-30T13:28:21.242Z,43.50
2019-04-30T13:30:53.535Z,43.30
2019-04-30T13:33:39.177Z,41.50
2019-04-30T13:36:11.595Z,43.10
2019-04-30T13:38:59.475Z,42.00
2019-04-30T13:41:46.306Z,40.10
2019-04-30T13:44:23.635Z,41.80
2019-04-30T13:46:56.018Z,40.00
2019-04-30T13:49:30.291Z,39.20
2019-04-30T13:52:02.984Z,39.00
2019-04-30T13:54:35.579Z,38.40
2019-04-30T13:57:09.078Z,39.50
2019-04-30T13:59:43.406Z,38.60
2019-04-30T14:02:16.082Z,39.00
2019-04-30T14:04:55.054Z,40.80
2019-04-30T14:07:44.845Z,40.90
2019-04-30T14:10:19.594Z,42.10
2019-04-30T14:12:55.322Z,40.90
2019-04-30T14:15:29.180Z,41.60
2019-04-30T14:18:01.687Z,52.30
2019-04-30T14:20:34.111Z,54.80
2019-04-30T14:23:08.852Z,54.40
2019-04-30T14:26:19.529Z,55.00
2019-04-30T14:31:59.717Z,55.80
2019-04-30T14:34:51.492Z,56.70
2019-04-30T14:38:33.165Z,58.20
2019-04-30T14:41:13.025Z,59.20
2019-04-30T14:44:07.029Z,58.90
2019-04-30T14:47:14.495Z,58.80
2019-04-30T14:50:24.584Z,60.20
2019-04-30T14:53:49.015Z,61.00
2019-04-30T14:57:10.233Z,62.50
2019-04-30T15:00:31.933Z,64.00
2019-04-30T15:03:46.758Z,62.10
2019-04-30T15:06:54.134Z,63.40
2019-04-30T15:09:57.738Z,64.30
